createdAt,value
2022-11-25T00:00:00.339Z,90.65
2022-11-25T00:01:00.355Z,90.89
2022-11-25T00:02:00.346Z,91.00
2022-11-25T00:03:00.418Z,91.10
2022-11-25T00:04:00.280Z,91.00
2022-11-25T00:05:00.275Z,90.65
2022-11-25T00:06:00.298Z,90.55
2022-11-25T00:07:00.279Z,90.44
2022-11-25T00:08:00.255Z,90.44
2022-11-25T00:09:00.222Z,90.44
2022-11-25T00:10:00.228Z,90.65
2022-11-25T00:11:00.214Z,90.75
2022-11-25T00:12:00.191Z,90.65
2022-11-25T00:13:00.171Z,90.55
2022-11-25T00:14:00.203Z,90.65
2022-11-25T00:15:00.145Z,90.44
2022-11-25T00:16:00.223Z,90.34
2022-11-25T00:17:00.204Z,90.34
2022-11-25T00:18:00.109Z,90.03
2022-11-25T00:19:00.115Z,89.99
2022-11-25T00:20:00.171Z,90.14
2022-11-25T00:21:00.101Z,90.14
2022-11-25T00:22:00.087Z,90.24
2022-11-25T00:23:00.143Z,90.34
2022-11-25T00:24:00.038Z,90.55
2022-11-25T00:25:00.028Z,90.55
2022-11-25T00:26:00.041Z,90.65
2022-11-25T00:26:59.999Z,90.75
2022-11-25T00:27:59.985Z,90.85
2022-11-25T00:29:00.049Z,90.85
2022-11-25T00:29:59.991Z,90.95
2022-11-25T00:31:00.015Z,90.95
2022-11-25T00:32:00.000Z,91.06
2022-11-25T00:32:59.933Z,90.95
2022-11-25T00:33:59.949Z,90.95
2022-11-25T00:34:59.920Z,90.85
2022-11-25T00:35:59.895Z,90.85
2022-11-25T00:36:59.883Z,90.85
2022-11-25T00:37:59.883Z,90.55
2022-11-25T00:38:59.847Z,90.85
2022-11-25T00:39:59.861Z,90.75
2022-11-25T00:40:59.847Z,90.65
2022-11-25T00:41:59.827Z,90.75
2022-11-25T00:42:59.810Z,90.85
2022-11-25T00:43:59.800Z,90.95
2022-11-25T00:44:59.782Z,91.06
2022-11-25T00:45:59.787Z,91.06
2022-11-25T00:46:59.770Z,91.16
2022-11-25T00:47:59.734Z,91.37
2022-11-25T00:48:59.735Z,91.37
2022-11-25T00:49:59.735Z,91.47
2022-11-25T00:50:59.743Z,91.47
2022-11-25T00:51:59.689Z,91.47
2022-11-25T00:52:59.672Z,91.37
2022-11-25T00:53:59.684Z,91.27
2022-11-25T00:54:59.663Z,91.16
2022-11-25T00:55:59.692Z,91.16
2022-11-25T00:56:59.656Z,91.06
2022-11-25T00:57:59.610Z,91.16
2022-11-25T00:58:59.615Z,91.37
2022-11-25T00:59:59.595Z,91.37
2022-11-25T01:00:59.646Z,91.57
2022-11-25T01:01:59.673Z,91.47
2022-11-25T01:02:59.552Z,91.47
2022-11-25T01:03:59.550Z,91.47
2022-11-25T01:04:59.591Z,91.47
2022-11-25T01:05:59.536Z,91.47
2022-11-25T01:06:59.506Z,91.37
2022-11-25T01:07:59.505Z,91.27
2022-11-25T01:08:59.485Z,91.12
2022-11-25T01:09:59.484Z,91.02
2022-11-25T01:10:59.455Z,91.12
2022-11-25T01:11:59.481Z,91.37
2022-11-25T01:12:59.456Z,91.37
2022-11-25T01:14:01.477Z,91.47
2022-11-25T01:14:59.415Z,91.57
2022-11-25T01:15:59.425Z,91.42
2022-11-25T01:16:59.381Z,91.47
2022-11-25T01:17:59.425Z,91.33
2022-11-25T01:18:59.366Z,91.22
2022-11-25T01:19:59.353Z,91.22
2022-11-25T01:20:59.344Z,91.02
2022-11-25T01:21:59.333Z,91.02
2022-11-25T01:22:59.320Z,91.02
2022-11-25T01:23:59.317Z,91.02
2022-11-25T01:24:59.292Z,90.91
2022-11-25T01:25:59.312Z,90.91
2022-11-25T01:26:59.259Z,91.12
2022-11-25T01:27:59.250Z,91.33
2022-11-25T01:28:59.270Z,91.33
2022-11-25T01:29:59.233Z,91.33
2022-11-25T01:30:59.221Z,91.33
2022-11-25T01:31:59.284Z,91.12
2022-11-25T01:32:59.200Z,91.22
2022-11-25T01:33:59.174Z,91.42
2022-11-25T01:34:59.231Z,91.53
2022-11-25T01:35:59.143Z,91.63
2022-11-25T01:36:59.164Z,91.84
2022-11-25T01:37:59.163Z,91.74
2022-11-25T01:38:59.166Z,91.63
2022-11-25T01:39:59.125Z,91.53
2022-11-25T01:40:59.139Z,91.18
2022-11-25T01:41:59.086Z,91.28
2022-11-25T01:42:59.094Z,91.18
2022-11-25T01:43:59.072Z,91.28
2022-11-25T01:44:59.064Z,91.18
2022-11-25T01:45:59.119Z,91.42
2022-11-25T01:46:59.016Z,91.49
2022-11-25T01:47:59.003Z,91.18
2022-11-25T01:48:58.993Z,91.18
2022-11-25T01:49:58.994Z,91.18
2022-11-25T01:50:58.965Z,91.28
2022-11-25T01:51:58.971Z,91.28
2022-11-25T01:52:58.943Z,91.28
2022-11-25T01:53:58.932Z,91.38
2022-11-25T01:54:58.918Z,91.59
2022-11-25T01:55:58.914Z,91.38
2022-11-25T01:56:58.901Z,91.18
2022-11-25T01:57:58.933Z,91.28
2022-11-25T01:58:58.972Z,91.08
2022-11-25T01:59:58.865Z,91.08
2022-11-25T02:00:59.005Z,90.97
2022-11-25T02:01:58.960Z,90.97
2022-11-25T02:02:58.878Z,90.87
2022-11-25T02:03:58.863Z,90.97
2022-11-25T02:04:58.821Z,90.77
2022-11-25T02:05:58.864Z,90.62
2022-11-25T02:06:58.788Z,90.52
2022-11-25T02:07:58.840Z,90.77
2022-11-25T02:08:58.811Z,90.77
2022-11-25T02:10:06.480Z,90.52
2022-11-25T02:10:58.793Z,90.52
2022-11-25T02:11:58.771Z,90.73
2022-11-25T02:12:58.876Z,90.73
2022-11-25T02:13:58.711Z,90.62
2022-11-25T02:14:58.708Z,90.73
2022-11-25T02:15:58.673Z,90.73
2022-11-25T02:16:58.687Z,90.52
2022-11-25T02:17:58.629Z,90.73
2022-11-25T02:18:58.626Z,90.62
2022-11-25T02:19:58.624Z,90.42
2022-11-25T02:20:58.605Z,90.52
2022-11-25T02:21:58.602Z,90.52
2022-11-25T02:22:58.605Z,90.52
2022-11-25T02:23:58.574Z,90.83
2022-11-25T02:24:58.578Z,90.83
2022-11-25T02:25:58.603Z,90.73
2022-11-25T02:26:58.586Z,90.52
2022-11-25T02:27:58.505Z,90.83
2022-11-25T02:28:58.595Z,90.73
2022-11-25T02:29:58.527Z,90.48
2022-11-25T02:30:58.495Z,90.58
2022-11-25T02:31:58.508Z,90.69
2022-11-25T02:32:58.436Z,90.69
2022-11-25T02:33:58.487Z,90.37
2022-11-25T02:34:58.448Z,90.37
2022-11-25T02:35:58.443Z,90.37
2022-11-25T02:36:58.419Z,90.37
2022-11-25T02:37:58.432Z,90.58
2022-11-25T02:38:58.378Z,90.69
2022-11-25T02:39:58.380Z,90.79
2022-11-25T02:40:58.340Z,90.48
2022-11-25T02:41:58.379Z,90.58
2022-11-25T02:42:58.330Z,90.58
2022-11-25T02:43:58.357Z,90.37
2022-11-25T02:44:58.299Z,90.34
2022-11-25T02:45:58.352Z,90.37
2022-11-25T02:46:58.297Z,90.48
2022-11-25T02:47:58.271Z,90.58
2022-11-25T02:49:13.489Z,90.69
2022-11-25T02:49:59.226Z,90.54
2022-11-25T02:50:58.260Z,90.23
2022-11-25T02:51:58.270Z,90.34
2022-11-25T02:52:58.186Z,90.54
2022-11-25T02:53:58.189Z,90.89
2022-11-25T02:54:58.213Z,91.36
2022-11-25T02:55:58.161Z,91.71
2022-11-25T02:56:58.137Z,92.02
2022-11-25T02:57:58.143Z,92.12
2022-11-25T02:58:58.100Z,92.02
2022-11-25T02:59:58.113Z,92.83
2022-11-25T03:00:58.164Z,92.12
2022-11-25T03:01:58.142Z,92.12
2022-11-25T03:02:58.064Z,92.22
2022-11-25T03:03:58.043Z,92.12
2022-11-25T03:04:58.033Z,92.12
2022-11-25T03:05:58.062Z,92.53
2022-11-25T03:06:58.011Z,92.74
2022-11-25T03:07:58.073Z,93.04
2022-11-25T03:08:57.996Z,92.83
2022-11-25T03:09:58.054Z,92.83
2022-11-25T03:10:57.979Z,93.35
2022-11-25T03:11:57.987Z,93.04
2022-11-25T03:12:58.083Z,92.94
2022-11-25T03:13:57.976Z,92.83
2022-11-25T03:14:58.246Z,92.94
2022-11-25T03:15:57.926Z,93.04
2022-11-25T03:16:57.941Z,93.04
2022-11-25T03:17:57.857Z,93.76
2022-11-25T03:18:57.876Z,94.07
2022-11-25T03:19:57.838Z,94.78
2022-11-25T03:20:57.840Z,94.73
2022-11-25T03:21:57.817Z,95.03
2022-11-25T03:22:57.798Z,95.14
2022-11-25T03:23:57.800Z,94.93
2022-11-25T03:24:57.799Z,95.44
2022-11-25T03:25:57.805Z,95.34
2022-11-25T03:26:57.768Z,95.86
2022-11-25T03:27:57.736Z,95.34
2022-11-25T03:28:57.709Z,95.95
2022-11-25T03:29:57.705Z,95.95
2022-11-25T03:30:57.736Z,95.24
2022-11-25T03:31:57.723Z,95.34
2022-11-25T03:32:57.682Z,95.75
2022-11-25T03:33:57.665Z,95.54
2022-11-25T03:34:57.646Z,95.65
2022-11-25T03:35:57.687Z,95.65
2022-11-25T03:36:57.698Z,95.14
2022-11-25T03:37:57.639Z,95.14
2022-11-25T03:38:57.635Z,95.24
2022-11-25T03:39:57.577Z,95.34
2022-11-25T03:40:57.588Z,94.73
2022-11-25T03:41:57.552Z,94.27
2022-11-25T03:42:57.572Z,94.27
2022-11-25T03:46:35.681Z,93.76
2022-11-25T03:47:45.704Z,93.86
2022-11-25T03:48:35.467Z,94.07
2022-11-25T03:49:35.448Z,93.55
2022-11-25T03:50:35.389Z,93.86
2022-11-25T03:51:35.374Z,93.76
2022-11-25T03:52:35.365Z,93.55
2022-11-25T03:53:35.354Z,93.96
2022-11-25T03:54:35.500Z,94.27
2022-11-25T03:55:35.386Z,94.48
2022-11-25T03:56:35.332Z,93.76
2022-11-25T03:57:35.409Z,93.96
2022-11-25T03:58:35.324Z,93.86
2022-11-25T03:59:35.321Z,94.48
2022-11-25T04:00:35.277Z,94.48
2022-11-25T04:01:37.179Z,94.48
2022-11-25T04:02:35.341Z,94.78
2022-11-25T04:03:35.264Z,95.29
2022-11-25T04:04:35.402Z,95.91
2022-11-25T04:05:35.209Z,96.53
2022-11-25T04:06:35.180Z,96.67
2022-11-25T04:07:35.283Z,96.98
2022-11-25T04:08:35.232Z,97.29
2022-11-25T04:09:35.154Z,97.80
2022-11-25T04:10:35.144Z,98.00
2022-11-25T04:11:35.152Z,98.32
2022-11-25T04:12:35.120Z,98.62
2022-11-25T04:13:35.100Z,98.97
2022-11-25T04:14:35.932Z,99.28
2022-11-25T04:15:35.081Z,98.97
2022-11-25T04:16:35.103Z,99.49
2022-11-25T04:17:35.200Z,99.79
2022-11-25T04:18:35.224Z,99.90
2022-11-25T04:19:35.022Z,99.99
2022-11-25T04:20:35.032Z,99.99
2022-11-25T04:21:34.983Z,99.99
2022-11-25T04:22:34.971Z,99.99
2022-11-25T04:23:34.944Z,99.99
2022-11-25T04:24:35.217Z,99.99
2022-11-25T04:25:34.903Z,99.99
2022-11-25T04:26:34.904Z,99.99
2022-11-25T04:27:34.901Z,99.99
2022-11-25T04:28:34.874Z,99.99
2022-11-25T04:29:34.883Z,99.99
2022-11-25T04:30:34.925Z,99.99
2022-11-25T04:31:34.827Z,99.99
2022-11-25T04:32:34.813Z,99.99
2022-11-25T04:33:35.060Z,99.99
2022-11-25T04:34:35.131Z,99.99
2022-11-25T04:35:34.785Z,99.99
2022-11-25T04:36:34.788Z,99.99
2022-11-25T04:37:34.757Z,99.99
2022-11-25T04:38:34.744Z,99.99
2022-11-25T04:39:34.734Z,99.99
2022-11-25T04:40:34.735Z,99.99
2022-11-25T04:41:34.697Z,99.99
2022-11-25T04:42:34.828Z,99.99
2022-11-25T04:43:34.696Z,99.99
2022-11-25T04:44:34.837Z,99.99
2022-11-25T04:45:58.650Z,99.99
2022-11-25T04:46:35.722Z,99.99
2022-11-25T04:47:34.618Z,99.99
2022-11-25T04:48:34.619Z,99.99
2022-11-25T04:49:34.589Z,99.99
2022-11-25T04:50:34.598Z,99.99
2022-11-25T04:51:34.559Z,99.99
2022-11-25T04:52:34.563Z,99.99
2022-11-25T04:53:34.538Z,99.99
2022-11-25T04:54:34.922Z,99.99
2022-11-25T04:55:34.539Z,99.99
2022-11-25T04:56:34.523Z,99.99
2022-11-25T04:57:34.520Z,99.99
2022-11-25T04:58:34.496Z,99.99
2022-11-25T04:59:34.470Z,99.99
2022-11-25T05:05:52.919Z,99.99
2022-11-25T05:06:52.873Z,99.99
2022-11-25T05:07:52.853Z,99.99
2022-11-25T05:08:52.848Z,99.99
2022-11-25T05:09:52.727Z,99.99
2022-11-25T05:10:52.808Z,99.99
2022-11-25T05:11:52.697Z,99.99
2022-11-25T05:12:52.730Z,99.99
2022-11-25T05:13:52.672Z,99.99
2022-11-25T05:14:57.499Z,99.99
2022-11-25T05:15:52.740Z,99.99
2022-11-25T05:16:52.773Z,99.99
2022-11-25T05:17:52.641Z,99.99
2022-11-25T05:18:52.765Z,99.99
2022-11-25T05:19:52.600Z,99.99
2022-11-25T05:20:52.626Z,99.99
2022-11-25T05:21:52.589Z,99.99
2022-11-25T05:22:52.612Z,99.99
2022-11-25T05:23:55.816Z,99.99
2022-11-25T05:24:52.566Z,99.99
2022-11-25T05:25:52.538Z,99.99
2022-11-25T05:26:52.528Z,99.99
2022-11-25T05:27:52.522Z,99.99
2022-11-25T05:28:52.502Z,99.99
2022-11-25T05:29:55.981Z,99.99
2022-11-25T05:30:52.668Z,99.99
2022-11-25T05:31:52.499Z,99.99
2022-11-25T05:32:52.467Z,99.99
2022-11-25T05:33:52.455Z,99.99
2022-11-25T05:34:52.427Z,99.99
2022-11-25T05:35:52.495Z,99.99
2022-11-25T05:36:52.422Z,99.99
2022-11-25T05:37:52.417Z,99.99
2022-11-25T05:38:52.386Z,99.99
2022-11-25T05:39:52.363Z,99.99
2022-11-25T05:40:52.490Z,99.99
2022-11-25T05:41:52.343Z,99.99
2022-11-25T05:42:52.353Z,99.99
2022-11-25T05:43:52.430Z,99.99
2022-11-25T05:44:52.388Z,99.99
2022-11-25T05:45:52.717Z,99.99
2022-11-25T05:46:52.404Z,99.99
2022-11-25T05:47:52.271Z,99.99
2022-11-25T05:48:52.356Z,99.99
2022-11-25T05:49:52.202Z,99.99
2022-11-25T05:50:52.230Z,99.99
2022-11-25T05:51:52.215Z,99.99
2022-11-25T05:52:52.269Z,99.99
2022-11-25T05:53:52.175Z,99.99
2022-11-25T05:54:56.854Z,99.99
2022-11-25T05:55:53.126Z,99.99
2022-11-25T05:56:52.165Z,99.99
2022-11-25T05:57:52.288Z,99.99
2022-11-25T05:58:52.308Z,99.99
2022-11-25T05:59:52.233Z,99.99
2022-11-25T06:00:52.067Z,99.99
2022-11-25T06:01:52.080Z,99.99
2022-11-25T06:02:52.233Z,99.99
2022-11-25T06:03:52.129Z,99.99
2022-11-25T06:04:52.120Z,99.99
2022-11-25T06:05:52.046Z,99.99
2022-11-25T06:06:52.483Z,99.99
2022-11-25T06:07:52.016Z,99.99
2022-11-25T06:08:52.041Z,99.99
2022-11-25T06:09:52.001Z,99.99
2022-11-25T06:10:52.016Z,99.99
2022-11-25T06:11:51.905Z,99.99
2022-11-25T06:12:52.333Z,99.99
2022-11-25T06:13:51.942Z,99.99
2022-11-25T06:14:51.896Z,99.99
2022-11-25T06:15:52.014Z,99.99
2022-11-25T06:16:51.986Z,99.99
2022-11-25T06:17:51.965Z,99.99
2022-11-25T06:18:51.833Z,99.99
2022-11-25T06:19:51.909Z,99.99
2022-11-25T06:20:51.826Z,99.99
2022-11-25T06:21:51.803Z,99.99
2022-11-25T06:22:51.817Z,99.99
2022-11-25T06:23:51.824Z,99.99
2022-11-25T06:24:58.940Z,99.99
2022-11-25T06:25:52.782Z,99.99
2022-11-25T06:26:51.764Z,99.99
2022-11-25T06:28:12.005Z,99.99
2022-11-25T06:28:52.738Z,99.99
2022-11-25T06:29:51.685Z,99.99
2022-11-25T06:30:51.744Z,99.99
2022-11-25T06:31:51.675Z,99.99
2022-11-25T06:32:51.701Z,99.99
2022-11-25T06:33:58.369Z,99.99
2022-11-25T06:34:51.690Z,99.99
2022-11-25T06:35:51.629Z,99.99
2022-11-25T06:36:51.633Z,99.99
2022-11-25T06:37:51.637Z,99.99
2022-11-25T06:38:51.570Z,99.99
2022-11-25T06:39:51.622Z,99.99
2022-11-25T06:40:53.119Z,99.99
2022-11-25T06:41:51.580Z,99.99
2022-11-25T06:42:51.576Z,99.99
2022-11-25T06:43:51.590Z,99.99
2022-11-25T06:44:51.515Z,99.99
2022-11-25T06:45:51.579Z,99.99
2022-11-25T06:46:51.586Z,99.99
2022-11-25T06:47:51.481Z,99.99
2022-11-25T06:48:51.499Z,99.99
2022-11-25T06:49:51.438Z,99.99
2022-11-25T06:50:51.428Z,99.99
2022-11-25T06:51:51.438Z,99.99
2022-11-25T06:52:51.409Z,99.99
2022-11-25T06:53:51.419Z,99.99
2022-11-25T06:54:51.363Z,99.99
2022-11-25T06:55:51.385Z,99.99
2022-11-25T06:56:51.402Z,99.99
2022-11-25T06:57:53.295Z,99.99
2022-11-25T06:58:51.339Z,99.99
2022-11-25T06:59:51.315Z,99.99
2022-11-25T07:00:51.345Z,99.99
2022-11-25T07:01:51.423Z,99.99
2022-11-25T07:02:51.320Z,99.99
2022-11-25T07:03:51.289Z,99.99
2022-11-25T07:04:51.267Z,99.99
2022-11-25T07:05:51.244Z,99.99
2022-11-25T07:06:51.281Z,99.99
2022-11-25T07:07:51.345Z,99.99
2022-11-25T07:08:51.263Z,99.99
2022-11-25T07:09:51.186Z,99.99
2022-11-25T07:12:16.624Z,99.99
2022-11-25T07:13:16.621Z,99.99
2022-11-25T07:14:16.707Z,99.99
2022-11-25T07:15:16.558Z,99.99
2022-11-25T07:16:16.735Z,99.99
2022-11-25T07:17:16.505Z,99.99
2022-11-25T07:18:16.506Z,99.99
2022-11-25T07:19:16.528Z,99.99
2022-11-25T07:20:16.507Z,99.99
2022-11-25T07:21:16.441Z,99.99
2022-11-25T07:22:16.436Z,99.99
2022-11-25T07:23:16.573Z,99.99
2022-11-25T07:24:16.522Z,99.99
2022-11-25T07:25:16.427Z,99.99
2022-11-25T07:26:16.383Z,99.99
2022-11-25T07:27:16.360Z,99.99
2022-11-25T07:28:16.341Z,99.99
2022-11-25T07:30:10.307Z,99.99
2022-11-25T07:31:28.295Z,99.99
2022-11-25T07:32:17.352Z,99.99
2022-11-25T07:33:16.334Z,99.99
2022-11-25T07:34:16.326Z,99.99
2022-11-25T07:35:16.309Z,99.99
2022-11-25T07:36:16.339Z,99.99
2022-11-25T07:37:16.340Z,99.99
2022-11-25T07:38:16.295Z,99.99
2022-11-25T07:39:16.310Z,99.99
2022-11-25T07:40:16.212Z,99.99
2022-11-25T07:41:16.300Z,99.99
2022-11-25T07:42:16.349Z,99.99
2022-11-25T07:43:16.181Z,99.99
2022-11-25T07:44:16.181Z,99.99
2022-11-25T07:45:16.171Z,99.99
2022-11-25T07:46:16.481Z,99.99
2022-11-25T07:47:16.235Z,99.99
2022-11-25T07:48:16.181Z,99.99
2022-11-25T07:49:16.111Z,99.99
2022-11-25T07:50:16.164Z,99.99
2022-11-25T07:51:16.101Z,99.99
2022-11-25T07:52:16.070Z,99.99
2022-11-25T07:53:16.123Z,99.99
2022-11-25T07:54:16.132Z,99.99
2022-11-25T07:55:16.029Z,99.99
2022-11-25T07:56:16.077Z,99.99
2022-11-25T07:57:16.047Z,99.99
2022-11-25T07:58:16.038Z,99.99
2022-11-25T07:59:15.972Z,99.99
2022-11-25T08:00:15.940Z,99.99
2022-11-25T08:01:16.049Z,99.99
2022-11-25T08:02:16.015Z,99.99
2022-11-25T08:03:15.953Z,99.99
2022-11-25T08:04:20.082Z,99.99
2022-11-25T08:05:15.918Z,99.99
2022-11-25T08:06:15.923Z,99.99
2022-11-25T08:07:16.047Z,99.99
2022-11-25T08:08:16.020Z,99.99
2022-11-25T08:09:16.043Z,99.99
2022-11-25T08:10:16.881Z,99.99
2022-11-25T08:11:15.909Z,99.99
2022-11-25T08:12:16.228Z,99.99
2022-11-25T08:13:15.856Z,99.99
2022-11-25T08:14:15.856Z,99.99
2022-11-25T08:17:56.327Z,99.99
2022-11-25T08:18:56.308Z,99.99
2022-11-25T08:19:56.296Z,99.99
2022-11-25T08:20:56.277Z,99.99
2022-11-25T08:21:56.245Z,99.99
2022-11-25T08:22:56.250Z,99.99
2022-11-25T08:23:56.233Z,99.99
2022-11-25T08:24:56.253Z,99.99
2022-11-25T08:25:56.212Z,99.99
2022-11-25T08:26:56.180Z,99.99
2022-11-25T08:27:56.169Z,99.99
2022-11-25T08:28:56.171Z,99.99
2022-11-25T08:29:56.178Z,99.99
2022-11-25T08:30:56.185Z,99.99
2022-11-25T08:31:57.210Z,99.99
2022-11-25T08:32:56.159Z,99.99
2022-11-25T08:33:56.232Z,99.99
2022-11-25T08:34:56.100Z,99.99
2022-11-25T08:35:56.087Z,99.99
2022-11-25T08:36:56.067Z,99.99
2022-11-25T08:37:56.051Z,99.99
2022-11-25T08:38:56.059Z,99.99
2022-11-25T08:39:56.569Z,99.99
2022-11-25T08:40:56.013Z,99.99
2022-11-25T08:41:56.014Z,99.99
2022-11-25T08:42:56.009Z,99.99
2022-11-25T08:43:56.012Z,99.99
2022-11-25T08:44:56.060Z,99.99
2022-11-25T08:45:56.014Z,99.99
2022-11-25T08:46:55.999Z,99.99
2022-11-25T08:47:55.939Z,99.99
2022-11-25T08:48:55.898Z,99.99
2022-11-25T08:49:55.904Z,99.99
2022-11-25T08:50:55.898Z,99.99
2022-11-25T08:51:55.865Z,99.99
2022-11-25T08:52:55.866Z,99.99
2022-11-25T08:53:55.881Z,99.99
2022-11-25T08:54:56.517Z,99.99
2022-11-25T08:55:56.029Z,99.99
2022-11-25T08:56:55.850Z,99.99
2022-11-25T09:00:43.131Z,99.51
2022-11-25T09:01:34.964Z,99.99
2022-11-25T09:02:34.936Z,99.21
2022-11-25T09:03:34.883Z,99.52
2022-11-25T09:04:34.918Z,97.78
2022-11-25T09:05:34.861Z,97.94
2022-11-25T09:06:34.853Z,96.56
2022-11-25T09:07:34.914Z,96.00
2022-11-25T09:08:34.841Z,96.30
2022-11-25T09:09:35.329Z,97.28
2022-11-25T09:10:34.790Z,96.31
2022-11-25T09:11:34.823Z,94.78
2022-11-25T09:12:34.787Z,95.39
2022-11-25T09:13:34.788Z,95.03
2022-11-25T09:14:34.741Z,95.79
2022-11-25T09:15:34.754Z,95.94
2022-11-25T09:16:34.812Z,96.39
2022-11-25T09:17:34.695Z,97.21
2022-11-25T09:18:34.704Z,97.97
2022-11-25T09:19:34.903Z,98.28
2022-11-25T09:20:34.670Z,98.63
2022-11-25T09:21:34.670Z,99.04
2022-11-25T09:22:34.666Z,99.15
2022-11-25T09:23:34.622Z,99.45
2022-11-25T09:24:34.599Z,99.66
2022-11-25T09:25:34.595Z,99.55
2022-11-25T09:26:34.602Z,99.76
2022-11-25T09:27:34.614Z,99.91
2022-11-25T09:28:34.564Z,99.99
2022-11-25T09:29:34.879Z,99.99
2022-11-25T09:30:34.534Z,99.99
2022-11-25T09:31:34.561Z,99.99
2022-11-25T09:32:34.504Z,99.99
2022-11-25T09:33:34.507Z,99.99
2022-11-25T09:34:34.673Z,99.99
2022-11-25T09:35:34.455Z,99.99
2022-11-25T09:36:34.453Z,99.99
2022-11-25T09:37:34.486Z,99.99
2022-11-25T09:38:37.699Z,99.99
2022-11-25T09:39:35.807Z,99.99
2022-11-25T09:40:34.392Z,99.99
2022-11-25T09:41:34.388Z,99.99
2022-11-25T09:42:34.386Z,99.99
2022-11-25T09:43:34.342Z,99.99
2022-11-25T09:44:34.342Z,99.99
2022-11-25T09:45:34.322Z,99.99
2022-11-25T09:46:34.340Z,99.99
2022-11-25T09:47:34.299Z,99.99
2022-11-25T09:48:34.316Z,99.99
2022-11-25T09:49:34.349Z,99.99
2022-11-25T09:50:34.268Z,99.99
2022-11-25T09:51:34.262Z,99.99
2022-11-25T09:52:34.237Z,99.99
2022-11-25T09:53:34.257Z,99.99
2022-11-25T09:54:34.196Z,99.99
2022-11-25T09:55:34.181Z,99.99
2022-11-25T09:56:34.167Z,99.99
2022-11-25T09:57:34.172Z,99.99
2022-11-25T09:58:34.170Z,99.99
2022-11-25T09:59:34.367Z,99.99
2022-11-25T10:00:34.115Z,99.99
2022-11-25T10:01:34.140Z,99.99
2022-11-25T10:02:34.170Z,99.86
2022-11-25T10:03:34.172Z,99.99
2022-11-25T10:04:34.070Z,99.99
2022-11-25T10:05:34.052Z,99.99
2022-11-25T10:06:34.074Z,99.99
2022-11-25T10:07:34.012Z,99.99
2022-11-25T10:08:34.010Z,99.99
2022-11-25T10:09:34.197Z,99.96
2022-11-25T10:10:34.162Z,99.99
2022-11-25T10:11:33.961Z,99.61
2022-11-25T10:12:33.969Z,99.86
2022-11-25T10:13:33.942Z,99.82
2022-11-25T10:14:33.923Z,99.91
2022-11-25T10:15:33.900Z,99.91
2022-11-25T10:16:33.979Z,99.99
2022-11-25T10:17:33.883Z,99.71
2022-11-25T10:18:33.870Z,99.99
2022-11-25T10:19:34.202Z,99.77
2022-11-25T10:20:33.831Z,99.46
2022-11-25T10:21:33.824Z,99.66
2022-11-25T10:22:33.865Z,98.54
2022-11-25T10:23:33.822Z,98.85
2022-11-25T10:24:38.419Z,98.49
2022-11-25T10:25:34.770Z,98.97
2022-11-25T10:26:33.750Z,96.84
2022-11-25T10:27:33.745Z,96.38
2022-11-25T10:28:33.761Z,96.39
2022-11-25T10:29:33.722Z,95.33
2022-11-25T10:30:33.698Z,95.28
2022-11-25T10:31:33.748Z,91.96
2022-11-25T10:32:33.658Z,90.41
2022-11-25T10:33:33.664Z,92.86
2022-11-25T10:34:33.902Z,93.67
2022-11-25T10:35:33.617Z,93.77
2022-11-25T10:36:33.626Z,94.43
2022-11-25T10:37:33.625Z,94.02
2022-11-25T10:38:33.606Z,94.08
2022-11-25T10:39:33.572Z,94.50
2022-11-25T10:40:33.553Z,93.33
2022-11-25T10:41:33.558Z,90.95
2022-11-25T10:42:33.538Z,92.01
2022-11-25T10:43:33.519Z,92.99
2022-11-25T10:44:33.490Z,92.72
2022-11-25T10:45:33.474Z,93.05
2022-11-25T10:46:56.877Z,92.65
2022-11-25T10:47:34.517Z,91.86
2022-11-25T10:48:33.457Z,90.66
2022-11-25T10:49:33.420Z,86.94
2022-11-25T10:50:33.389Z,85.60
2022-11-25T10:51:33.379Z,87.00
2022-11-25T10:52:33.365Z,88.00
2022-11-25T10:53:33.362Z,90.64
2022-11-25T10:54:33.348Z,91.05
2022-11-25T10:55:33.353Z,89.99
2022-11-25T10:56:33.300Z,88.59
2022-11-25T10:57:33.300Z,86.10
2022-11-25T10:58:33.318Z,86.13
2022-11-25T10:59:33.286Z,84.60
2022-11-25T11:00:33.274Z,84.20
2022-11-25T11:01:33.308Z,85.60
2022-11-25T11:02:33.300Z,86.45
2022-11-25T11:03:33.204Z,85.86
2022-11-25T11:04:33.203Z,87.32
2022-11-25T11:05:33.185Z,88.39
2022-11-25T11:06:33.163Z,89.04
2022-11-25T11:07:33.328Z,90.10
2022-11-25T11:08:33.152Z,91.27
2022-11-25T11:09:33.145Z,92.59
2022-11-25T11:10:33.096Z,92.39
2022-11-25T11:11:33.082Z,92.39
2022-11-25T11:12:33.109Z,93.10
2022-11-25T11:13:33.140Z,92.19
2022-11-25T11:14:33.067Z,92.13
2022-11-25T11:15:33.026Z,92.33
2022-11-25T11:16:33.071Z,92.74
2022-11-25T11:17:36.438Z,92.64
2022-11-25T11:18:32.975Z,92.54
2022-11-25T11:19:32.999Z,92.59
2022-11-25T11:20:32.947Z,91.83
2022-11-25T11:21:32.941Z,93.06
2022-11-25T11:22:32.935Z,91.63
2022-11-25T11:23:32.908Z,92.86
2022-11-25T11:24:32.908Z,93.12
2022-11-25T11:25:32.886Z,92.71
2022-11-25T11:26:32.890Z,93.63
2022-11-25T11:27:32.877Z,92.00
2022-11-25T11:28:32.871Z,91.96
2022-11-25T11:29:32.823Z,91.85
2022-11-25T11:30:32.817Z,90.42
2022-11-25T11:31:32.936Z,89.34
2022-11-25T11:32:32.780Z,90.06
2022-11-25T11:33:32.769Z,91.39
2022-11-25T11:34:32.752Z,90.77
2022-11-25T11:35:35.499Z,90.57
2022-11-25T11:36:33.744Z,91.18
2022-11-25T11:37:33.411Z,91.69
2022-11-25T11:38:32.705Z,91.49
2022-11-25T11:39:32.694Z,91.28
2022-11-25T11:40:32.660Z,91.02
2022-11-25T11:41:32.637Z,91.83
2022-11-25T11:42:32.673Z,91.63
2022-11-25T11:43:32.628Z,91.33
2022-11-25T11:44:32.616Z,91.59
2022-11-25T11:45:32.601Z,91.08
2022-11-25T11:46:32.595Z,91.08
2022-11-25T11:47:32.575Z,91.79
2022-11-25T11:48:32.548Z,90.71
2022-11-25T11:49:32.572Z,89.90
2022-11-25T11:50:32.506Z,90.31
2022-11-25T11:51:32.491Z,89.79
2022-11-25T11:52:32.478Z,88.63
2022-11-25T11:53:32.494Z,88.78
2022-11-25T11:54:32.448Z,88.57
2022-11-25T11:55:32.462Z,87.96
2022-11-25T11:56:36.273Z,88.47
2022-11-25T11:57:32.408Z,88.93
2022-11-25T11:58:32.405Z,88.73
2022-11-25T11:59:32.397Z,88.84
2022-11-25T12:00:32.356Z,88.84
2022-11-25T12:01:32.387Z,88.02
2022-11-25T12:02:32.402Z,85.98
2022-11-25T12:03:32.360Z,87.61
2022-11-25T12:04:32.300Z,87.61
2022-11-25T12:05:32.296Z,87.98
2022-11-25T12:06:32.308Z,87.98
2022-11-25T12:07:32.347Z,86.04
2022-11-25T12:08:32.257Z,85.84
2022-11-25T12:09:32.236Z,86.69
2022-11-25T12:10:32.221Z,86.90
2022-11-25T12:11:32.205Z,86.49
2022-11-25T12:12:32.204Z,87.51
2022-11-25T12:13:32.165Z,86.90
2022-11-25T12:14:32.167Z,87.20
2022-11-25T12:15:32.130Z,87.41
2022-11-25T12:16:32.182Z,85.98
2022-11-25T12:17:32.159Z,86.80
2022-11-25T12:18:32.096Z,86.08
2022-11-25T12:19:32.084Z,86.35
2022-11-25T12:20:32.087Z,85.45
2022-11-25T12:21:32.079Z,83.37
2022-11-25T12:22:32.037Z,81.30
2022-11-25T12:23:32.024Z,81.04
2022-11-25T12:24:32.017Z,82.09
2022-11-25T12:25:32.015Z,84.06
2022-11-25T12:26:32.010Z,84.88
2022-11-25T12:27:32.036Z,84.92
2022-11-25T12:28:31.986Z,84.86
2022-11-25T12:29:31.968Z,85.77
2022-11-25T12:30:31.942Z,85.88
2022-11-25T12:31:31.955Z,85.68
2022-11-25T12:32:31.917Z,86.29
2022-11-25T12:33:31.880Z,86.29
2022-11-25T12:34:31.862Z,85.57
2022-11-25T12:35:31.857Z,86.22
2022-11-25T12:36:31.850Z,85.30
2022-11-25T12:37:31.919Z,86.12
2022-11-25T12:38:31.805Z,85.10
2022-11-25T12:39:31.816Z,86.02
2022-11-25T12:40:31.769Z,86.43
2022-11-25T12:41:31.759Z,86.22
2022-11-25T12:42:31.777Z,85.88
2022-11-25T12:43:31.759Z,86.29
2022-11-25T12:44:35.432Z,86.43
2022-11-25T12:45:31.741Z,85.92
2022-11-25T12:46:31.687Z,86.43
2022-11-25T12:47:31.685Z,86.53
2022-11-25T12:48:31.649Z,86.59
2022-11-25T12:49:31.671Z,86.04
2022-11-25T12:50:31.619Z,85.63
2022-11-25T12:51:31.621Z,85.13
2022-11-25T12:52:31.592Z,84.92
2022-11-25T12:53:31.609Z,84.61
2022-11-25T12:54:31.589Z,84.47
2022-11-25T12:55:31.577Z,83.96
2022-11-25T12:56:31.542Z,83.45
2022-11-25T12:57:31.593Z,83.56
2022-11-25T12:58:31.640Z,83.21
2022-11-25T12:59:31.520Z,82.09
2022-11-25T13:00:46.880Z,83.42
2022-11-25T13:01:32.558Z,83.07
2022-11-25T13:02:31.493Z,83.09
2022-11-25T13:03:31.443Z,80.76
2022-11-25T13:04:31.461Z,80.15
2022-11-25T13:05:40.685Z,80.55
2022-11-25T13:06:32.399Z,79.88
2022-11-25T13:07:31.467Z,81.06